createdAt,value
2018-10-19T00:02:12.216Z,28.87
2018-10-19T00:04:42.069Z,29.97
2018-10-19T00:07:12.144Z,32.50
2018-10-19T00:09:41.754Z,35.13
2018-10-19T00:12:11.047Z,39.53
2018-10-19T00:14:40.666Z,40.23
2018-10-19T00:17:10.531Z,42.00
2018-10-19T00:19:39.973Z,42.03
2018-10-19T00:22:09.372Z,40.60
2018-10-19T00:24:38.714Z,41.73
2018-10-19T00:27:08.028Z,42.57
2018-10-19T00:29:37.796Z,38.33
2018-10-19T00:32:07.429Z,38.20
2018-10-19T00:34:37.124Z,38.67
2018-10-19T00:37:07.133Z,41.73
2018-10-19T00:39:36.576Z,43.40
2018-10-19T00:42:06.206Z,41.53
2018-10-19T00:44:35.945Z,41.10
2018-10-19T00:47:05.640Z,43.63
2018-10-19T00:49:34.992Z,40.63
2018-10-19T00:52:04.391Z,40.50
2018-10-19T00:54:33.890Z,40.23
2018-10-19T00:57:03.208Z,42.00
2018-10-19T00:59:33.102Z,41.90
2018-10-19T01:02:03.648Z,45.87
2018-10-19T01:04:33.185Z,44.07
2018-10-19T01:07:02.945Z,45.83
2018-10-19T01:09:32.450Z,41.47
2018-10-19T01:12:01.761Z,40.63
2018-10-19T01:14:32.204Z,40.80
2018-10-19T01:18:31.296Z,38.53
2018-10-19T01:21:01.251Z,37.17
2018-10-19T01:23:30.515Z,41.03
2018-10-19T01:25:59.812Z,41.00
2018-10-19T01:28:29.288Z,42.13
2018-10-19T01:30:58.742Z,40.43
2018-10-19T01:33:28.346Z,40.97
2018-10-19T01:35:58.803Z,41.47
2018-10-19T01:45:17.442Z,35.00
2018-10-19T01:47:46.755Z,27.70
2018-10-19T01:50:16.865Z,29.00
2018-10-19T01:52:46.513Z,29.57
2018-10-19T01:55:15.727Z,32.17
2018-10-19T01:57:45.212Z,28.40
2018-10-19T02:00:14.521Z,26.97
2018-10-19T02:02:44.248Z,25.53
2018-10-19T02:05:14.243Z,24.40
2018-10-19T02:07:43.609Z,26.80
2018-10-19T02:10:13.350Z,30.03
2018-10-19T02:12:42.825Z,28.57
2018-10-19T02:15:13.121Z,28.87
2018-10-19T02:17:42.410Z,27.50
2018-10-19T02:20:11.650Z,27.53
2018-10-19T02:22:41.029Z,31.33
2018-10-19T02:25:11.028Z,27.63
2018-10-19T02:27:40.650Z,28.70
2018-10-19T02:30:10.618Z,28.47
2018-10-19T02:32:39.918Z,28.33
2018-10-19T02:35:09.791Z,29.33
2018-10-19T02:37:39.208Z,28.97
2018-10-19T02:40:09.400Z,30.30
2018-10-19T02:42:39.436Z,28.53
2018-10-19T02:45:09.968Z,31.43
2018-10-19T02:47:39.828Z,33.70
2018-10-19T02:50:10.228Z,33.83
2018-10-19T02:52:41.587Z,35.63
2018-10-19T02:55:11.338Z,29.80
2018-10-19T02:57:40.648Z,35.30
2018-10-19T03:00:11.830Z,34.07
2018-10-19T03:02:42.060Z,33.17
2018-10-19T03:05:11.375Z,32.67
2018-10-19T03:07:41.287Z,32.23
2018-10-19T03:10:11.202Z,31.93
2018-10-19T03:12:40.674Z,30.83
2018-10-19T03:15:11.532Z,34.53
2018-10-19T03:17:41.456Z,31.67
2018-10-19T03:20:11.175Z,35.00
2018-10-19T03:22:40.792Z,31.53
2018-10-19T03:25:11.080Z,30.73
2018-10-19T03:27:40.410Z,32.40
2018-10-19T03:30:10.204Z,36.27
2018-10-19T03:32:39.961Z,33.83
2018-10-19T03:35:09.514Z,37.53
2018-10-19T03:37:39.196Z,32.63
2018-10-19T03:40:08.966Z,32.73
2018-10-19T03:42:38.298Z,37.10
2018-10-19T03:45:08.930Z,32.93
2018-10-19T03:47:38.836Z,35.13
2018-10-19T03:50:08.309Z,35.70
2018-10-19T03:52:37.684Z,33.87
2018-10-19T03:55:07.743Z,33.53
2018-10-19T03:57:37.189Z,33.00
2018-10-19T04:00:06.541Z,33.60
2018-10-19T04:02:36.081Z,32.90
2018-10-19T04:05:05.789Z,33.83
2018-10-19T04:07:35.195Z,33.20
2018-10-19T04:10:04.540Z,36.77
2018-10-19T04:12:34.214Z,35.07
2018-10-19T04:15:03.638Z,36.13
2018-10-19T04:17:33.200Z,36.20
2018-10-19T04:20:02.813Z,37.83
2018-10-19T04:22:32.322Z,41.23
2018-10-19T04:25:02.748Z,37.13
2018-10-19T04:27:32.458Z,37.43
2018-10-19T04:30:01.882Z,39.17
2018-10-19T04:32:32.347Z,36.27
2018-10-19T04:35:01.748Z,33.57
2018-10-19T04:37:32.089Z,35.20
2018-10-19T04:40:02.103Z,40.47
2018-10-19T04:42:32.523Z,33.73
2018-10-19T04:45:02.236Z,32.03
2018-10-19T04:47:32.706Z,30.63
2018-10-19T04:50:02.198Z,30.23
2018-10-19T04:52:34.231Z,31.03
2018-10-19T04:55:04.309Z,28.50
2018-10-19T04:57:33.688Z,30.20
2018-10-19T05:00:03.196Z,32.07
2018-10-19T05:02:34.104Z,30.23
2018-10-19T05:05:04.958Z,29.03
2018-10-19T05:07:34.957Z,28.57
2018-10-19T05:10:08.041Z,29.50
2018-10-19T05:12:37.594Z,26.00
2018-10-19T05:15:08.219Z,26.87
2018-10-19T05:17:38.748Z,26.83
2018-10-19T05:20:10.959Z,25.73
2018-10-19T05:22:41.557Z,24.40
2018-10-19T05:25:13.010Z,22.40
2018-10-19T05:27:45.093Z,24.17
2018-10-19T05:30:16.853Z,27.40
2018-10-19T05:32:50.900Z,27.80
2018-10-19T05:35:22.614Z,21.87
2018-10-19T05:37:52.498Z,24.47
2018-10-19T05:40:22.365Z,25.80
2018-10-19T05:42:51.743Z,23.87
2018-10-19T05:45:22.705Z,22.97
2018-10-19T05:47:52.822Z,21.70
2018-10-19T05:50:22.290Z,23.70
2018-10-19T05:52:52.919Z,19.33
2018-10-19T05:55:23.166Z,21.10
2018-10-19T05:57:53.450Z,18.77
2018-10-19T06:00:24.359Z,18.53
2018-10-19T06:02:54.211Z,19.50
2018-10-19T06:05:33.648Z,18.57
2018-10-19T06:08:05.717Z,20.90
2018-10-19T06:10:36.734Z,19.57
2018-10-19T06:13:10.562Z,16.13
2018-10-19T06:15:46.137Z,18.83
2018-10-19T06:18:16.173Z,20.07
2018-10-19T06:20:45.517Z,18.93
2018-10-19T06:23:18.340Z,25.07
2018-10-19T06:25:48.843Z,16.93
2018-10-19T06:28:21.122Z,20.57
2018-10-19T06:31:00.272Z,19.57
2018-10-19T06:33:31.449Z,17.63
2018-10-19T06:36:04.974Z,18.63
2018-10-19T06:38:39.251Z,18.57
2018-10-19T06:41:12.532Z,18.50
2018-10-19T06:43:44.516Z,17.80
2018-10-19T06:46:15.175Z,20.43
2018-10-19T06:48:45.614Z,17.90
2018-10-19T06:51:16.151Z,17.53
2018-10-19T06:53:46.987Z,18.30
2018-10-19T06:56:17.275Z,18.30
2018-10-19T06:58:46.755Z,20.07
2018-10-19T07:01:16.201Z,18.13
2018-10-19T07:03:46.075Z,19.67
2018-10-19T07:06:16.943Z,17.47
2018-10-19T07:08:47.393Z,20.27
2018-10-19T07:11:17.440Z,24.13
2018-10-19T07:13:47.444Z,22.32
2018-10-19T07:16:17.190Z,21.63
2018-10-19T07:18:48.331Z,23.07
2018-10-19T07:21:19.610Z,23.73
2018-10-19T07:23:51.574Z,24.53
2018-10-19T07:26:23.531Z,20.60
2018-10-19T07:28:53.790Z,22.50
2018-10-19T07:31:23.319Z,24.23
2018-10-19T07:33:53.230Z,24.47
2018-10-19T07:36:24.123Z,24.57
2018-10-19T07:38:54.148Z,24.67
2018-10-19T07:41:27.357Z,24.57
2018-10-19T07:43:56.831Z,25.00
2018-10-19T07:46:27.223Z,21.70
2018-10-19T07:48:58.797Z,26.63
2018-10-19T07:51:28.706Z,21.73
2018-10-19T07:56:43.123Z,19.67
2018-10-19T07:59:14.828Z,20.73
2018-10-19T08:01:46.799Z,18.43
2018-10-19T08:04:16.369Z,20.67
2018-10-19T08:06:46.821Z,20.23
2018-10-19T08:09:16.109Z,20.37
2018-10-19T08:11:48.873Z,23.43
2018-10-19T08:14:20.847Z,17.93
2018-10-19T08:16:52.547Z,18.60
2018-10-19T08:19:29.492Z,20.07
2018-10-19T08:22:06.258Z,19.17
2018-10-19T08:24:42.314Z,17.30
2018-10-19T08:27:12.470Z,16.20
2018-10-19T08:29:43.018Z,15.87
2018-10-19T08:32:14.262Z,15.33
2018-10-19T08:34:43.944Z,15.10
2018-10-19T08:37:13.529Z,20.33
2018-10-19T08:39:44.028Z,15.60
2018-10-19T08:42:14.408Z,16.37
2018-10-19T08:44:43.956Z,14.77
2018-10-19T08:47:13.759Z,17.37
2018-10-19T08:49:45.662Z,14.77
2018-10-19T08:52:16.651Z,17.10
2018-10-19T08:54:46.187Z,14.47
2018-10-19T08:57:15.714Z,15.37
2018-10-19T08:59:46.588Z,17.03
2018-10-19T09:02:16.504Z,14.97
2018-10-19T09:04:47.618Z,17.30
2018-10-19T09:07:17.670Z,15.63
2018-10-19T09:09:49.894Z,14.87
2018-10-19T09:12:26.553Z,16.62
2018-10-19T09:14:57.859Z,17.00
2018-10-19T09:17:29.808Z,17.27
2018-10-19T09:19:59.859Z,18.57
2018-10-19T09:22:29.796Z,16.37
2018-10-19T09:24:59.537Z,18.50
2018-10-19T09:27:30.955Z,22.00
2018-10-19T09:30:01.081Z,20.57
2018-10-19T09:32:31.170Z,21.57
2018-10-19T09:35:10.023Z,20.03
2018-10-19T09:37:39.716Z,20.50
2018-10-19T09:40:09.443Z,22.63
2018-10-19T09:42:39.206Z,21.20
2018-10-19T09:45:09.849Z,20.80
2018-10-19T09:47:40.767Z,22.73
2018-10-19T09:50:11.145Z,22.97
2018-10-19T09:52:40.599Z,22.70
2018-10-19T09:55:12.085Z,24.03
2018-10-19T09:57:44.369Z,26.90
2018-10-19T10:00:19.696Z,23.13
2018-10-19T10:02:51.211Z,22.77
2018-10-19T10:05:21.471Z,20.97
2018-10-19T10:07:50.823Z,22.40
2018-10-19T10:10:21.236Z,22.47
2018-10-19T10:12:55.640Z,24.43
2018-10-19T10:15:25.284Z,23.10
2018-10-19T10:17:57.012Z,22.87
2018-10-19T10:20:39.097Z,25.50
2018-10-19T10:23:11.719Z,25.70
2018-10-19T10:25:57.325Z,24.30
2018-10-19T10:28:32.672Z,23.47
2018-10-19T10:31:06.892Z,22.53
2018-10-19T10:33:36.465Z,23.90
2018-10-19T10:36:07.615Z,22.63
2018-10-19T10:38:42.296Z,23.17
2018-10-19T10:41:15.330Z,22.87
2018-10-19T10:43:48.305Z,18.73
2018-10-19T10:46:20.751Z,21.93
2018-10-19T10:48:57.683Z,22.20
2018-10-19T10:51:34.776Z,21.80
2018-10-19T10:54:06.789Z,24.67
2018-10-19T10:56:37.836Z,18.50
2018-10-19T10:59:09.240Z,19.57
2018-10-19T11:01:44.697Z,18.80
2018-10-19T11:04:19.271Z,18.37
2018-10-19T11:06:51.224Z,18.20
2018-10-19T11:09:21.336Z,20.87
2018-10-19T11:11:51.033Z,22.63
2018-10-19T11:14:26.636Z,19.07
2018-10-19T11:17:04.998Z,20.97
2018-10-19T11:20:03.697Z,17.70
2018-10-19T11:22:33.827Z,20.33
2018-10-19T11:25:03.961Z,19.33
2018-10-19T11:27:33.869Z,20.50
2018-10-19T11:30:05.585Z,21.10
2018-10-19T11:33:25.171Z,19.47
2018-10-19T11:35:56.469Z,19.63
2018-10-19T11:39:13.968Z,18.40
2018-10-19T11:41:48.170Z,16.97
2018-10-19T11:47:43.813Z,18.30
2018-10-19T11:50:28.182Z,16.83
2018-10-19T11:52:58.559Z,18.43
2018-10-19T11:55:32.688Z,17.23
2018-10-19T11:58:39.184Z,17.93
2018-10-19T12:01:11.161Z,19.50
2018-10-19T12:04:07.766Z,19.80
2018-10-19T12:06:39.231Z,17.90
2018-10-19T12:12:31.092Z,19.83
2018-10-19T12:15:24.939Z,20.00
2018-10-19T12:17:57.167Z,20.57
2018-10-19T12:20:27.249Z,18.80
2018-10-19T12:23:25.745Z,21.90
2018-10-19T12:25:57.108Z,22.17
2018-10-19T12:28:27.314Z,22.83
2018-10-19T12:30:57.227Z,24.03
2018-10-19T12:33:26.450Z,23.93
2018-10-19T12:35:57.160Z,25.23
2018-10-19T12:38:26.692Z,22.23
2018-10-19T12:40:56.527Z,24.50
2018-10-19T12:44:00.196Z,22.73
2018-10-19T12:46:42.671Z,22.83
2018-10-19T12:49:51.780Z,26.43
2018-10-19T12:52:22.210Z,23.33
2018-10-19T12:55:34.794Z,21.47
2018-10-19T12:58:05.537Z,22.93
2018-10-19T13:00:53.013Z,24.83
2018-10-19T13:03:22.620Z,25.40
2018-10-19T13:05:52.176Z,26.00
2018-10-19T13:09:08.203Z,25.67
2018-10-19T13:11:38.169Z,20.90
2018-10-19T13:14:47.379Z,25.00
2018-10-19T13:17:20.824Z,25.27
2018-10-19T13:20:40.271Z,25.03
2018-10-19T13:23:09.774Z,26.70
2018-10-19T13:26:06.551Z,24.37
2018-10-19T13:28:36.812Z,24.20
2018-10-19T13:31:09.133Z,24.77
2018-10-19T13:34:18.370Z,23.97
2018-10-19T13:36:47.878Z,23.90
2018-10-19T13:39:40.355Z,25.43
2018-10-19T13:42:10.000Z,28.03
2018-10-19T13:45:26.038Z,28.77
2018-10-19T13:47:55.644Z,27.53
2018-10-19T13:51:07.658Z,25.60
2018-10-19T13:53:37.223Z,27.60
2018-10-19T13:56:06.819Z,24.40
2018-10-19T13:59:09.656Z,26.17
2018-10-19T14:01:39.090Z,24.53
2018-10-19T14:04:47.781Z,24.47
2018-10-19T14:07:20.945Z,28.50
2018-10-19T14:10:24.090Z,23.30
2018-10-19T14:12:53.744Z,26.87
2018-10-19T14:16:10.058Z,24.97
2018-10-19T14:18:39.297Z,25.50
2018-10-19T14:21:09.917Z,28.00
2018-10-19T14:24:06.831Z,26.00
2018-10-19T14:26:37.535Z,28.47
2018-10-19T14:32:28.175Z,27.67
2018-10-19T14:35:36.029Z,24.77
2018-10-19T14:38:05.905Z,26.00
2018-10-19T14:40:56.371Z,27.73
2018-10-19T14:43:26.362Z,28.60
2018-10-19T14:45:56.706Z,29.50
2018-10-19T14:49:06.408Z,27.70
2018-10-19T14:51:38.410Z,26.87
2018-10-19T14:54:45.473Z,27.07
2018-10-19T14:57:15.552Z,24.30
2018-10-19T15:00:19.762Z,28.33
2018-10-19T15:02:57.224Z,27.40
2018-10-19T15:06:05.799Z,25.00
2018-10-19T15:08:36.076Z,28.37
2018-10-19T15:11:17.538Z,24.43
2018-10-19T15:13:46.801Z,28.50
2018-10-19T15:16:20.499Z,25.87
2018-10-19T15:19:29.281Z,28.50
2018-10-19T15:22:32.613Z,28.07
2018-10-19T15:25:02.417Z,27.67
2018-10-19T15:28:07.616Z,27.27
2018-10-19T15:30:40.729Z,25.47
2018-10-19T15:33:45.182Z,26.00
2018-10-19T15:36:14.676Z,26.13
2018-10-19T15:39:11.128Z,27.50
2018-10-19T15:41:41.513Z,26.43
2018-10-19T15:44:57.586Z,26.93
2018-10-19T15:47:31.124Z,27.13
2018-10-19T15:50:34.563Z,27.70
2018-10-19T15:53:04.403Z,29.00
2018-10-19T15:56:08.787Z,28.37
2018-10-19T15:58:41.212Z,26.93
2018-10-19T16:01:43.985Z,28.10
2018-10-19T16:04:13.461Z,26.27
2018-10-19T16:06:42.894Z,30.17
2018-10-19T16:09:52.815Z,25.23
2018-10-19T16:12:24.295Z,28.87
2018-10-19T16:15:33.742Z,30.17
2018-10-19T16:18:03.747Z,29.17
2018-10-19T16:21:02.878Z,31.10
2018-10-19T16:23:33.802Z,26.30
2018-10-19T16:26:29.463Z,26.90
2018-10-19T16:29:00.772Z,26.63
2018-10-19T16:31:31.512Z,25.37
2018-10-19T16:34:51.050Z,27.97
2018-10-19T16:37:20.800Z,24.63
2018-10-19T16:40:25.901Z,25.83
2018-10-19T16:42:58.843Z,27.37
2018-10-19T16:46:14.423Z,22.93
2018-10-19T16:48:44.791Z,26.17
2018-10-19T16:51:28.378Z,25.30
2018-10-19T16:54:00.536Z,29.73
2018-10-19T16:56:30.691Z,27.17
2018-10-19T16:59:46.745Z,24.53
2018-10-19T17:02:17.944Z,26.13
2018-10-19T17:05:15.441Z,26.97
2018-10-19T17:07:45.305Z,28.63
2018-10-19T17:10:15.289Z,30.33
2018-10-19T17:12:44.935Z,27.30
2018-10-19T17:15:16.103Z,25.10
2018-10-19T17:17:47.716Z,27.60
2018-10-19T17:20:19.192Z,25.63
2018-10-19T17:23:36.375Z,24.33
2018-10-19T17:26:09.784Z,22.27
2018-10-19T17:29:19.361Z,23.57
2018-10-19T17:31:50.370Z,26.40
2018-10-19T17:34:55.996Z,29.13
2018-10-19T17:37:25.565Z,27.67
2018-10-19T17:40:25.717Z,25.73
2018-10-19T17:42:57.708Z,28.30
2018-10-19T17:46:14.090Z,31.13
2018-10-19T17:48:46.380Z,24.83
2018-10-19T17:52:01.935Z,30.20
2018-10-19T17:54:37.636Z,30.93
2018-10-19T18:03:38.261Z,31.30
2018-10-19T18:06:07.984Z,32.73
2018-10-19T18:09:25.081Z,34.20
2018-10-19T18:11:54.483Z,28.37
2018-10-19T18:14:58.224Z,34.13
2018-10-19T18:17:31.611Z,28.80
2018-10-19T18:20:40.450Z,30.27
2018-10-19T18:23:09.974Z,32.07
2018-10-19T18:26:07.337Z,28.40
2018-10-19T18:28:37.643Z,32.23
2018-10-19T18:31:43.958Z,30.77
2018-10-19T18:34:14.284Z,28.53
2018-10-19T18:37:05.776Z,30.97
2018-10-19T18:39:35.469Z,29.20
2018-10-19T18:42:06.801Z,30.73
2018-10-19T18:45:22.949Z,32.70
2018-10-19T18:47:52.437Z,35.10
2018-10-19T18:50:51.592Z,36.50
2018-10-19T18:53:53.346Z,32.30
2018-10-19T18:56:59.340Z,35.07
2018-10-19T18:59:30.018Z,32.37
2018-10-19T19:02:00.466Z,27.77
2018-10-19T19:05:07.487Z,32.30
2018-10-19T19:07:37.969Z,29.73
2018-10-19T19:10:35.954Z,29.00
2018-10-19T19:13:10.967Z,30.73
2018-10-19T19:16:18.819Z,29.33
2018-10-19T19:18:51.653Z,26.20
2018-10-19T19:21:55.594Z,28.57
2018-10-19T19:24:32.311Z,30.57
2018-10-19T19:27:16.048Z,26.57
2018-10-19T19:29:45.494Z,30.00
2018-10-19T19:32:16.106Z,30.33
2018-10-19T19:34:46.456Z,27.13
2018-10-19T19:37:16.803Z,27.70
2018-10-19T19:43:10.109Z,28.37
2018-10-19T19:46:13.306Z,27.13
2018-10-19T19:48:47.774Z,30.87
2018-10-19T19:51:47.761Z,27.07
2018-10-19T19:54:18.878Z,27.37
2018-10-19T19:57:10.935Z,28.70
2018-10-19T19:59:40.668Z,28.27
2018-10-19T20:02:11.708Z,30.70
2018-10-19T20:04:41.176Z,26.30
2018-10-19T20:07:11.670Z,26.73
2018-10-19T20:09:44.461Z,26.23
2018-10-19T20:12:35.753Z,29.50
2018-10-19T20:15:10.326Z,28.80
2018-10-19T20:17:39.775Z,25.27
2018-10-19T20:20:11.353Z,26.57
2018-10-19T20:22:44.248Z,25.70
2018-10-19T20:25:52.520Z,32.13
2018-10-19T20:28:22.029Z,28.63
2018-10-19T20:31:41.080Z,24.13
2018-10-19T20:34:12.737Z,27.53
2018-10-19T20:37:17.178Z,29.53
2018-10-19T20:39:47.095Z,29.63
2018-10-19T20:42:18.376Z,30.90
2018-10-19T20:44:47.749Z,29.13
2018-10-19T20:47:18.268Z,28.60
2018-10-19T20:50:21.737Z,35.50
2018-10-19T20:52:51.112Z,29.07
2018-10-19T20:55:22.806Z,30.57
2018-10-19T20:57:52.319Z,30.80
2018-10-19T21:00:21.671Z,27.23
2018-10-19T21:02:51.887Z,27.50
2018-10-19T21:05:22.313Z,27.33
2018-10-19T21:07:52.447Z,31.37
2018-10-19T21:10:22.750Z,25.50
2018-10-19T21:12:52.195Z,28.67
2018-10-19T21:15:22.538Z,27.47
2018-10-19T21:17:53.580Z,29.17
2018-10-19T21:20:23.597Z,26.97
2018-10-19T21:22:54.196Z,27.43
2018-10-19T21:25:24.450Z,29.70
2018-10-19T21:27:54.040Z,31.53
2018-10-19T21:30:23.379Z,28.47
2018-10-19T21:32:54.814Z,31.57
2018-10-19T21:35:24.724Z,31.97
2018-10-19T21:37:56.102Z,29.17
2018-10-19T21:40:26.657Z,29.17
2018-10-19T21:42:57.405Z,32.17
2018-10-19T21:45:27.290Z,32.53
2018-10-19T21:47:59.012Z,28.73
2018-10-19T21:50:28.510Z,32.30
2018-10-19T21:52:59.187Z,34.37
2018-10-19T21:55:31.242Z,32.20
2018-10-19T21:58:01.077Z,31.13
2018-10-19T22:00:31.912Z,29.23
2018-10-19T22:03:02.339Z,32.20
2018-10-19T22:05:31.935Z,27.87
2018-10-19T22:08:01.670Z,32.73
2018-10-19T22:10:31.261Z,29.93
2018-10-19T22:13:02.048Z,30.13
2018-10-19T22:15:32.590Z,29.63
2018-10-19T22:18:02.212Z,32.10
2018-10-19T22:20:31.494Z,33.47
2018-10-19T22:23:01.226Z,31.93
2018-10-19T22:25:30.808Z,28.43
2018-10-19T22:28:01.192Z,27.67
2018-10-19T22:30:32.107Z,32.30
2018-10-19T22:33:02.691Z,29.00
2018-10-19T22:35:32.701Z,30.33
2018-10-19T22:38:02.624Z,30.90
2018-10-19T22:40:33.734Z,31.47
2018-10-19T22:43:03.569Z,32.50
2018-10-19T22:45:34.149Z,28.27
2018-10-19T22:48:03.645Z,29.53
2018-10-19T22:50:32.960Z,30.13
2018-10-19T22:53:02.472Z,29.13
2018-10-19T22:55:32.504Z,28.60
2018-10-19T22:58:02.311Z,28.53
2018-10-19T23:00:31.747Z,28.90
2018-10-19T23:03:01.575Z,26.17
2018-10-19T23:05:31.012Z,31.67
2018-10-19T23:08:00.604Z,32.37
2018-10-19T23:10:30.409Z,28.70
2018-10-19T23:13:04.060Z,33.27
2018-10-19T23:15:34.245Z,29.10
2018-10-19T23:18:05.185Z,34.23
2018-10-19T23:20:35.274Z,31.53
2018-10-19T23:23:04.745Z,34.00
2018-10-19T23:25:34.449Z,34.63
2018-10-19T23:28:03.879Z,28.47
2018-10-19T23:30:33.595Z,34.20
2018-10-19T23:33:03.043Z,29.23
2018-10-19T23:35:33.179Z,33.50
2018-10-19T23:38:03.194Z,32.40
2018-10-19T23:40:32.666Z,31.50
2018-10-19T23:43:02.243Z,32.27
2018-10-19T23:45:33.382Z,32.30
2018-10-19T23:48:02.970Z,32.53
2018-10-19T23:50:32.349Z,35.90
2018-10-19T23:53:01.633Z,33.97
2018-10-19T23:55:31.230Z,35.20
2018-10-19T23:58:00.728Z,28.97
